Terminal Aerodrome Forecast
Issued by NWS

Home | Current Version | Previous Version | Text Only | Print | Product List | Glossary On
Versions: 1 2 3 4 5 6 7 8 9 10 11 12 13 14 15 16 17 18 19
000
FTUS45 KTFX 271700
TAFHVR
TAF
KHVR 271722Z 2718/2818 22009KT P6SM SCT080 WS020/26040KT
     FM272100 23014G21KT P6SM FEW080 SCT200
     FM280900 23006KT P6SM VCFG FEW005 BKN150=

USA.gov is the U.S. government's official web portal to all federal, state and local government web resources and services.